Time;durP1;ratioP1;P1;durP2;ratioP2;P2;SDS_P1;SDS_P2;PMS_P1;PMS_P2;Temp;Humidity;BMP_temperature;BMP_pressure;BME280_temperature;BME280_humidity;BME280_pressure;Samples;Min_cycle;Max_cycle;Signal;HPM_P1;HPM_P2
2022/05/13 00:01:05;;;;;;;5.53;2.60;;;;;;;19.30;42.48;100364.50;4975120;28;96934;-90
2022/05/13 00:03:31;;;;;;;13.60;2.80;;;;;;;19.38;42.60;100370.16;5005264;28;100661;-87
2022/05/13 00:05:56;;;;;;;5.78;2.78;;;;;;;19.42;42.33;100356.50;4967760;28;98276;-89
2022/05/13 00:08:22;;;;;;;6.13;2.67;;;;;;;19.33;42.51;100367.81;4974646;28;96706;-90
2022/05/13 00:10:47;;;;;;;7.82;2.63;;;;;;;19.27;42.52;100368.25;4962200;28;96922;-89
2022/05/13 00:13:13;;;;;;;5.85;2.15;;;;;;;18.87;43.06;100325.75;4971664;28;98771;-89
2022/05/13 00:15:44;;;;;;;7.95;2.50;;;;;;;19.26;42.83;100377.19;4986085;28;98190;-90
2022/05/13 00:18:10;;;;;;;7.30;2.43;;;;;;;18.97;43.10;100331.31;4979001;28;97133;-89
2022/05/13 00:20:36;;;;;;;9.30;2.70;;;;;;;19.11;42.89;100340.97;4967823;28;97842;-89
2022/05/13 00:23:02;;;;;;;9.35;3.30;;;;;;;19.13;43.15;100352.38;4973831;28;101298;-89
2022/05/13 00:25:31;;;;;;;8.52;2.58;;;;;;;19.04;43.22;100324.59;4977763;28;101129;-89
2022/05/13 00:27:58;;;;;;;14.30;3.22;;;;;;;19.10;43.03;100344.59;4994490;28;97041;-88
2022/05/13 00:30:25;;;;;;;8.93;2.75;;;;;;;18.84;43.30;100315.31;4974610;28;96904;-90
2022/05/13 00:32:51;;;;;;;9.27;2.50;;;;;;;18.90;43.46;100345.97;4974381;28;101097;-89
2022/05/13 00:35:17;;;;;;;6.70;2.65;;;;;;;18.88;43.17;100310.63;4969504;28;99785;-89
2022/05/13 00:37:43;;;;;;;5.85;2.85;;;;;;;18.55;43.41;100283.56;4977852;28;96753;-89
2022/05/13 00:40:10;;;;;;;5.68;2.88;;;;;;;18.75;44.18;100345.22;4959057;28;97011;-90
2022/05/13 00:42:35;;;;;;;13.82;3.17;;;;;;;18.84;43.98;100349.91;4977246;28;100196;-89
2022/05/13 00:45:01;;;;;;;8.93;2.45;;;;;;;18.63;44.36;100343.34;4958204;28;101197;-89
2022/05/13 00:47:27;;;;;;;9.18;3.78;;;;;;;18.72;44.57;100358.69;4976778;28;96835;-90
2022/05/13 00:49:54;;;;;;;6.90;2.70;;;;;;;18.67;44.42;100350.16;4978206;28;96659;-89
2022/05/13 00:52:20;;;;;;;8.63;2.50;;;;;;;18.24;44.75;100283.94;4977251;28;101210;-90
2022/05/13 00:54:46;;;;;;;7.28;2.22;;;;;;;17.90;45.50;100261.41;4974112;28;100904;-90
2022/05/13 00:57:12;;;;;;;7.10;2.63;;;;;;;18.11;45.42;100294.50;4974413;28;96751;-88
2022/05/13 00:59:39;;;;;;;8.30;2.60;;;;;;;18.13;45.73;100294.44;4953246;28;96690;-89
2022/05/13 01:02:05;;;;;;;7.20;2.65;;;;;;;18.16;46.13;100321.63;4977340;28;98116;-89
2022/05/13 01:04:31;;;;;;;7.88;2.72;;;;;;;18.36;45.83;100340.75;4957115;28;101242;-89
2022/05/13 01:07:00;;;;;;;9.52;2.50;;;;;;;18.27;46.17;100328.91;4958187;28;96934;-89
2022/05/13 01:09:27;;;;;;;8.00;3.25;;;;;;;18.24;46.35;100337.09;4956178;28;97296;-87
2022/05/13 01:11:57;;;;;;;10.27;2.78;;;;;;;18.09;46.35;100312.34;4982267;28;98474;-89
2022/05/13 01:14:34;;;;;;;6.53;2.45;;;;;;;18.27;46.54;100340.38;4963738;28;98322;-89
2022/05/13 01:20:02;;;;;;;11.55;3.17;;;;;;;18.12;46.89;100321.91;4994063;28;96864;-88
2022/05/13 01:22:28;;;;;;;7.60;2.80;;;;;;;18.01;47.23;100323.50;4959881;28;100677;-89
2022/05/13 01:24:55;;;;;;;9.02;2.88;;;;;;;17.98;47.55;100331.66;4976652;28;98561;-89
2022/05/13 01:27:20;;;;;;;7.90;3.20;;;;;;;18.04;47.61;100336.56;4958564;28;96783;-89
2022/05/13 01:29:46;;;;;;;7.90;2.40;;;;;;;18.10;47.42;100324.69;4977359;28;97279;-89
2022/05/13 01:32:11;;;;;;;6.22;2.60;;;;;;;17.93;47.87;100319.63;4973496;28;97276;-89
2022/05/13 01:34:37;;;;;;;5.55;2.50;;;;;;;17.96;47.90;100338.00;4993002;28;98546;-89
2022/05/13 01:37:02;;;;;;;6.43;2.75;;;;;;;17.92;47.76;100329.41;4960295;28;96808;-88
2022/05/13 01:39:28;;;;;;;8.38;2.20;;;;;;;17.85;48.24;100326.28;4976192;28;96777;-91
2022/05/13 01:41:53;;;;;;;10.27;4.28;;;;;;;17.83;48.03;100312.25;4973805;28;99838;-89
2022/05/13 01:44:19;;;;;;;6.10;2.58;;;;;;;17.81;48.24;100319.47;4972563;28;100744;-90
2022/05/13 01:46:44;;;;;;;11.43;3.75;;;;;;;17.96;47.86;100322.94;4986763;28;96671;-92
2022/05/13 01:49:10;;;;;;;6.93;2.60;;;;;;;18.07;47.47;100309.81;4956545;28;96954;-88
2022/05/13 01:51:35;;;;;;;8.68;3.03;;;;;;;18.03;47.72;100304.78;4960232;28;101125;-89
2022/05/13 01:54:01;;;;;;;9.05;3.13;;;;;;;17.88;48.27;100288.91;4960055;28;100832;-90
2022/05/13 01:56:26;;;;;;;5.03;2.60;;;;;;;17.87;48.42;100313.75;4957035;28;96783;-89
2022/05/13 01:58:52;;;;;;;6.57;2.78;;;;;;;17.93;48.42;100314.31;4990369;28;96996;-89
2022/05/13 02:01:18;;;;;;;7.50;2.58;;;;;;;17.86;48.43;100312.06;4975924;28;101045;-90
2022/05/13 02:03:46;;;;;;;8.80;2.97;;;;;;;17.80;48.38;100312.47;4979151;28;97783;-89
2022/05/13 02:06:22;;;;;;;4.93;2.30;;;;;;;17.65;48.44;100297.47;4966210;28;96847;-89
2022/05/13 02:08:49;;;;;;;8.00;2.90;;;;;;;17.65;48.95;100311.56;4997074;28;98002;-92
2022/05/13 02:11:16;;;;;;;8.73;2.40;;;;;;;17.76;48.89;100307.41;4973979;28;98587;-89
2022/05/13 02:13:41;;;;;;;7.53;3.53;;;;;;;17.71;48.55;100312.13;4955710;28;100110;-89
2022/05/13 02:16:07;;;;;;;5.15;2.78;;;;;;;17.77;48.85;100319.72;4958000;28;97986;-92
2022/05/13 02:18:33;;;;;;;8.38;2.63;;;;;;;17.50;48.78;100291.31;4959708;28;96796;-89
2022/05/13 02:20:59;;;;;;;8.88;2.72;;;;;;;17.53;48.78;100293.78;4956562;28;101826;-90
2022/05/13 02:23:26;;;;;;;13.35;3.60;;;;;;;17.61;48.86;100317.19;4958929;28;101774;-89
2022/05/13 02:25:57;;;;;;;16.85;3.60;;;;;;;17.38;49.39;100290.31;4975391;28;96689;-91
2022/05/13 02:28:23;;;;;;;6.40;3.33;;;;;;;17.31;49.94;100298.75;4976408;28;96898;-92
2022/05/13 02:30:49;;;;;;;9.40;2.80;;;;;;;17.36;49.98;100304.59;4992822;28;97189;-92
2022/05/13 02:33:15;;;;;;;8.32;2.70;;;;;;;17.34;50.44;100298.56;4992289;28;98408;-89
2022/05/13 02:35:41;;;;;;;7.47;2.83;;;;;;;17.25;50.38;100293.81;4975003;28;96802;-89
2022/05/13 02:38:06;;;;;;;8.82;2.63;;;;;;;17.19;50.83;100308.28;4994618;28;97896;-90
2022/05/13 02:43:16;;;;;;;7.97;2.90;;;;;;;17.11;51.05;100297.34;4978122;28;101403;-89
2022/05/13 02:45:41;;;;;;;13.60;3.38;;;;;;;17.44;50.05;100304.97;4992424;28;97674;-90
2022/05/13 02:48:07;;;;;;;16.85;3.42;;;;;;;17.43;50.30;100304.13;4972925;28;97975;-91
2022/05/13 02:50:33;;;;;;;9.10;3.35;;;;;;;17.46;50.22;100308.41;4989431;28;98501;-90
2022/05/13 02:52:59;;;;;;;12.45;2.95;;;;;;;17.36;50.15;100297.50;4959209;28;100159;-90
2022/05/13 02:55:25;;;;;;;14.80;3.40;;;;;;;17.33;50.43;100294.19;4992943;28;96566;-90
2022/05/13 02:57:51;;;;;;;9.52;3.53;;;;;;;17.33;50.82;100291.53;4963344;28;96711;-90
2022/05/13 03:00:16;;;;;;;10.73;3.60;;;;;;;17.18;51.03;100294.19;4990750;28;97275;-91
2022/05/13 03:02:43;;;;;;;13.60;3.13;;;;;;;17.16;51.39;100289.91;4972244;28;97807;-89
2022/05/13 03:05:09;;;;;;;11.40;3.03;;;;;;;17.16;51.08;100293.44;4972246;28;96809;-90
2022/05/13 03:07:34;;;;;;;10.20;2.88;;;;;;;17.24;51.21;100292.09;4975197;28;97184;-90
2022/05/13 03:10:00;;;;;;;8.57;3.60;;;;;;;17.05;51.32;100272.03;4975708;28;100005;-89
2022/05/13 03:12:26;;;;;;;9.07;3.25;;;;;;;16.97;51.90;100269.84;4955100;28;101294;-89
2022/05/13 03:14:51;;;;;;;13.10;3.40;;;;;;;17.08;51.67;100289.56;4958141;28;96761;-90
2022/05/13 03:17:17;;;;;;;13.05;3.47;;;;;;;16.95;51.84;100284.16;4955697;28;96817;-90
2022/05/13 03:19:42;;;;;;;11.25;3.10;;;;;;;17.22;50.96;100291.34;4971943;28;101779;-90
2022/05/13 03:22:08;;;;;;;6.65;3.03;;;;;;;17.25;50.90;100288.50;4975090;28;100597;-89
2022/05/13 03:24:34;;;;;;;9.63;4.10;;;;;;;17.15;51.24;100294.38;4958485;28;96656;-89
2022/05/13 03:27:00;;;;;;;9.80;3.30;;;;;;;17.00;51.55;100286.53;4992496;28;96886;-91
2022/05/13 03:29:27;;;;;;;12.55;2.88;;;;;;;17.05;51.27;100284.47;4955251;28;101679;-90
2022/05/13 03:31:54;;;;;;;8.82;2.95;;;;;;;17.00;51.49;100278.56;4980736;28;98413;-91
2022/05/13 03:34:21;;;;;;;5.53;3.33;;;;;;;17.25;51.04;100294.69;4994247;28;97217;-91
2022/05/13 03:36:49;;;;;;;7.45;2.58;;;;;;;17.23;51.14;100285.97;4975968;28;97379;-92
2022/05/13 03:39:15;;;;;;;12.68;3.25;;;;;;;17.37;51.59;100291.25;4974199;28;100436;-89
2022/05/13 03:41:41;;;;;;;7.65;3.17;;;;;;;17.49;51.44;100292.28;4978459;28;101245;-91
2022/05/13 03:44:07;;;;;;;18.48;4.13;;;;;;;17.45;51.37;100279.28;4978217;28;97208;-91
2022/05/13 03:46:32;;;;;;;10.52;3.25;;;;;;;17.44;51.49;100294.38;4958749;28;96912;-89
2022/05/13 03:48:58;;;;;;;13.10;3.58;;;;;;;17.44;51.72;100291.72;4974434;28;100664;-91
2022/05/13 03:51:23;;;;;;;12.18;3.30;;;;;;;17.41;51.46;100281.28;4982843;28;98358;-90
2022/05/13 03:53:49;;;;;;;15.65;4.43;;;;;;;17.43;51.69;100297.97;4974678;28;96687;-91
2022/05/13 03:56:14;;;;;;;15.02;3.92;;;;;;;17.52;51.03;100280.63;4978908;28;97369;-91
2022/05/13 03:58:40;;;;;;;7.50;3.25;;;;;;;17.35;50.77;100258.66;4978278;28;97870;-90
2022/05/13 04:01:06;;;;;;;13.80;3.70;;;;;;;17.54;51.09;100286.66;4975165;28;97796;-91
2022/05/13 04:03:31;;;;;;;8.07;3.63;;;;;;;17.11;51.49;100231.88;5003868;28;97196;-90
2022/05/13 04:08:56;;;;;;;5.95;3.08;;;;;;;17.71;50.91;100293.56;4980182;28;100885;-91
2022/05/13 04:11:31;;;;;;;14.10;3.70;;;;;;;17.61;51.29;100288.84;4961532;28;101284;-91
2022/05/13 04:16:41;;;;;;;15.20;3.80;;;;;;;17.83;50.39;100311.38;4980521;28;96712;-91
2022/05/13 04:19:07;;;;;;;9.68;3.80;;;;;;;17.73;50.07;100286.34;4957927;28;101027;-91
2022/05/13 04:21:35;;;;;;;9.52;3.38;;;;;;;17.86;49.92;100274.03;4991204;28;101125;-91
2022/05/13 04:24:04;;;;;;;12.55;3.45;;;;;;;18.07;49.34;100298.34;4994119;28;96656;-90
2022/05/13 04:26:30;;;;;;;8.25;3.20;;;;;;;18.05;49.03;100295.78;4977593;28;96790;-92
2022/05/13 04:28:56;;;;;;;14.00;4.07;;;;;;;17.99;48.92;100282.03;4977804;28;96804;-92
2022/05/13 04:31:24;;;;;;;10.68;3.85;;;;;;;18.01;48.29;100280.16;4974527;28;100510;-91
2022/05/13 04:33:51;;;;;;;10.73;2.85;;;;;;;18.16;48.55;100296.88;4987214;28;96949;-90
2022/05/13 04:36:17;;;;;;;11.70;3.75;;;;;;;18.42;48.31;100309.28;4978017;28;97597;-92
2022/05/13 04:38:44;;;;;;;9.80;3.08;;;;;;;18.52;48.27;100314.81;4974052;28;101806;-92
2022/05/13 04:43:55;;;;;;;14.93;3.58;;;;;;;18.61;47.96;100300.91;4976162;28;97508;-91
2022/05/13 04:46:20;;;;;;;11.63;3.03;;;;;;;18.68;47.93;100307.53;4992690;28;97301;-93
2022/05/13 04:48:49;;;;;;;9.48;3.33;;;;;;;18.85;47.64;100305.53;4976385;28;101176;-93
2022/05/13 04:51:17;;;;;;;15.30;3.40;;;;;;;18.93;47.91;100317.34;4961745;28;101169;-93
2022/05/13 04:53:44;;;;;;;13.07;3.45;;;;;;;18.76;48.18;100315.00;4960096;28;96754;-93
2022/05/13 04:56:10;;;;;;;13.98;3.42;;;;;;;18.89;47.71;100312.38;4958049;28;96937;-93
2022/05/13 04:58:36;;;;;;;13.85;3.55;;;;;;;18.92;47.16;100285.56;4976699;28;100132;-91
2022/05/13 05:01:03;;;;;;;6.32;3.50;;;;;;;19.13;46.91;100321.28;4977833;28;98024;-92
2022/05/13 05:03:29;;;;;;;9.75;3.60;;;;;;;18.97;47.00;100305.56;4993587;28;98357;-92
2022/05/13 05:05:56;;;;;;;11.27;3.47;;;;;;;19.03;47.13;100304.28;4977635;28;97492;-92
2022/05/13 05:08:21;;;;;;;16.88;4.25;;;;;;;19.10;47.20;100310.03;4993410;28;98511;-93
2022/05/13 05:10:47;;;;;;;13.70;3.72;;;;;;;19.14;47.09;100304.41;4978080;28;98161;-93
2022/05/13 05:13:18;;;;;;;10.07;3.20;;;;;;;19.40;46.66;100301.69;4960879;28;96767;-93
2022/05/13 05:15:45;;;;;;;14.70;3.58;;;;;;;19.26;46.15;100264.53;4992053;28;96828;-94
2022/05/13 05:18:12;;;;;;;11.13;4.20;;;;;;;19.92;45.29;100305.09;4979234;28;100529;-92
2022/05/13 05:20:37;;;;;;;16.75;3.80;;;;;;;19.62;44.42;100256.59;5021516;28;103304;-94
2022/05/13 05:23:03;;;;;;;19.10;4.47;;;;;;;19.83;44.73;100303.94;5003788;28;96673;-94
2022/05/13 05:25:29;;;;;;;10.68;3.65;;;;;;;19.58;44.97;100287.06;4962917;28;97349;-93
2022/05/13 05:27:58;;;;;;;10.18;3.58;;;;;;;19.78;45.04;100290.13;4979427;28;100128;-93
2022/05/13 05:30:25;;;;;;;14.52;4.03;;;;;;;19.89;44.94;100299.03;4957655;28;100258;-94
2022/05/13 05:32:52;;;;;;;10.40;3.70;;;;;;;20.49;43.06;100299.06;4975795;28;96825;-94
2022/05/13 05:35:20;;;;;;;11.23;3.97;;;;;;;20.69;42.19;100255.75;4961425;28;96926;-92
2022/05/13 05:37:46;;;;;;;8.93;3.67;;;;;;;20.35;42.97;100302.75;4976383;28;100339;-95
2022/05/13 05:40:12;;;;;;;10.25;3.50;;;;;;;20.20;43.09;100282.59;4957520;28;101249;-93
2022/05/13 05:42:38;;;;;;;9.57;3.10;;;;;;;20.21;43.04;100247.81;4972565;28;96852;-93
2022/05/13 05:45:06;;;;;;;9.30;3.42;;;;;;;20.07;43.30;100258.66;4976603;28;96763;-93
2022/05/13 05:47:32;;;;;;;11.48;3.58;;;;;;;20.30;43.03;100286.25;4992344;28;97925;-91
2022/05/13 05:49:58;;;;;;;9.55;3.47;;;;;;;20.61;42.25;100278.66;4973508;28;97980;-93
2022/05/13 05:52:23;;;;;;;12.48;3.67;;;;;;;21.52;40.64;100264.41;4989673;28;97019;-92
2022/05/13 05:57:33;;;;;;;17.90;4.20;;;;;;;21.49;40.68;100286.84;4967604;28;100555;-93
2022/05/13 06:00:00;;;;;;;12.38;3.67;;;;;;;21.40;41.06;100299.13;4959141;28;101562;-93
2022/05/13 06:02:27;;;;;;;9.50;3.88;;;;;;;23.90;37.62;100302.06;4992743;28;96976;-91
2022/05/13 06:04:52;;;;;;;16.48;5.43;;;;;;;26.82;32.53;100288.31;4976186;28;96931;-93
2022/05/13 06:07:18;;;;;;;7.07;3.72;;;;;;;28.55;30.30;100274.44;4992049;28;98464;-93
2022/05/13 06:09:44;;;;;;;9.68;3.90;;;;;;;26.31;32.23;100275.59;4974312;28;99960;-93
2022/05/13 06:12:12;;;;;;;11.95;3.45;;;;;;;24.20;35.36;100280.63;4993361;28;97228;-94
2022/05/13 06:14:37;;;;;;;8.70;3.58;;;;;;;24.21;35.69;100285.88;4992703;28;96756;-93
2022/05/13 06:17:03;;;;;;;12.52;3.78;;;;;;;25.50;34.11;100276.41;4960652;28;100954;-91
2022/05/13 06:19:29;;;;;;;14.00;3.90;;;;;;;27.07;32.38;100291.16;4992095;28;97692;-93
2022/05/13 06:21:54;;;;;;;10.57;3.35;;;;;;;29.28;28.37;100270.75;4960066;28;96638;-93
2022/05/13 06:24:20;;;;;;;8.80;3.22;;;;;;;26.21;32.58;100281.09;4974265;28;97230;-93
2022/05/13 06:26:48;;;;;;;16.08;4.20;;;;;;;28.34;30.40;100263.28;4981009;28;98464;-93
2022/05/13 06:29:15;;;;;;;9.25;3.72;;;;;;;26.52;30.86;100261.84;4992676;28;98465;-92
2022/05/13 06:31:41;;;;;;;11.70;3.08;;;;;;;27.31;30.82;100285.06;4976170;28;96614;-90
2022/05/13 06:34:07;;;;;;;10.32;2.90;;;;;;;28.48;28.52;100253.66;4951147;28;98718;-89
2022/05/13 06:36:33;;;;;;;11.38;3.90;;;;;;;26.43;30.34;100277.88;4958433;28;100313;-87
2022/05/13 06:38:59;;;;;;;9.70;2.60;;;;;;;27.44;29.76;100263.06;4991059;28;98214;-80
2022/05/13 06:41:24;;;;;;;12.40;3.35;;;;;;;26.13;30.50;100273.78;4980953;28;96953;-82
2022/05/13 06:43:51;;;;;;;12.45;3.00;;;;;;;25.49;32.08;100285.47;4990105;28;97102;-80
2022/05/13 06:46:17;;;;;;;12.25;4.25;;;;;;;24.79;32.62;100253.63;4954440;28;102087;-80
2022/05/13 06:48:42;;;;;;;12.98;3.55;;;;;;;26.25;31.43;100270.84;4972819;28;98017;-81
2022/05/13 06:51:08;;;;;;;13.50;3.20;;;;;;;25.21;33.09;100271.19;4971055;28;96730;-80
2022/05/13 06:53:33;;;;;;;12.02;3.78;;;;;;;25.10;33.48;100282.91;4972130;28;96755;-80
2022/05/13 06:55:59;;;;;;;18.33;3.38;;;;;;;26.13;32.46;100279.16;4957022;28;101250;-80
2022/05/13 06:58:26;;;;;;;13.13;3.30;;;;;;;29.55;28.28;100272.16;4990027;28;98009;-84
2022/05/13 07:00:51;;;;;;;11.98;3.97;;;;;;;28.65;28.80;100256.19;4958168;28;96769;-80
2022/05/13 07:03:18;;;;;;;13.30;3.13;;;;;;;29.91;27.61;100263.53;4973353;28;97033;-80
2022/05/13 07:05:44;;;;;;;4.80;2.38;;;;;;;32.53;23.38;100271.38;4972723;28;101751;-81
2022/05/13 07:08:10;;;;;;;9.27;2.30;;;;;;;32.95;22.31;100255.13;4993429;28;98130;-80
2022/05/13 07:10:39;;;;;;;6.47;2.72;;;;;;;34.26;21.02;100242.25;4960755;28;97019;-81
2022/05/13 07:13:06;;;;;;;8.23;3.15;;;;;;;35.41;20.54;100244.63;4977926;28;96868;-82
2022/05/13 07:15:32;;;;;;;11.88;2.85;;;;;;;35.37;21.05;100249.66;4977816;28;101218;-82
2022/05/13 07:17:58;;;;;;;6.90;2.63;;;;;;;36.16;20.37;100242.97;4977624;28;98098;-81
2022/05/13 07:20:26;;;;;;;6.80;2.42;;;;;;;37.02;19.62;100238.59;4959700;28;96653;-81
2022/05/13 07:22:53;;;;;;;9.93;2.77;;;;;;;37.47;19.04;100235.56;4954754;28;97312;-81
2022/05/13 07:25:19;;;;;;;4.22;1.70;;;;;;;38.25;17.86;100239.25;4941712;28;101806;-80
2022/05/13 07:27:45;;;;;;;6.65;2.22;;;;;;;36.01;19.74;100234.19;4952571;28;101346;-81
2022/05/13 07:30:11;;;;;;;8.38;2.13;;;;;;;37.89;17.93;100230.13;4954874;28;96658;-81
2022/05/13 07:32:37;;;;;;;5.13;2.03;;;;;;;37.99;17.51;100218.59;4939525;28;97217;-81
2022/05/13 07:35:03;;;;;;;6.25;2.30;;;;;;;38.76;16.93;100231.44;4977109;28;97415;-81
2022/05/13 07:37:29;;;;;;;6.05;1.83;;;;;;;37.19;17.69;100222.41;4992827;28;101964;-81
2022/05/13 07:42:39;;;;;;;2.90;1.65;;;;;;;38.61;16.79;100220.97;4989103;28;96675;-81
2022/05/13 07:45:05;;;;;;;5.93;1.50;;;;;;;38.63;15.53;100218.81;4951670;28;101294;-81
2022/05/13 07:47:30;;;;;;;8.18;1.63;;;;;;;38.34;16.85;100226.91;4992494;28;99145;-83
2022/05/13 07:49:56;;;;;;;5.47;1.65;;;;;;;37.67;17.25;100223.50;4960527;28;96584;-82
2022/05/13 07:52:24;;;;;;;3.42;1.40;;;;;;;38.09;17.27;100218.88;4975411;28;96887;-83
2022/05/13 07:54:49;;;;;;;7.28;1.65;;;;;;;39.24;16.21;100209.16;4956261;28;101472;-81
2022/05/13 07:57:15;;;;;;;3.60;1.50;;;;;;;38.15;16.52;100208.88;4990627;28;100901;-81
2022/05/13 08:02:25;;;;;;;3.00;1.40;;;;;;;38.16;15.57;100213.28;4979334;28;96828;-83
2022/05/13 08:04:51;;;;;;;6.50;1.40;;;;;;;39.83;14.39;100204.31;4959550;28;101734;-81
2022/05/13 08:07:17;;;;;;;4.38;1.60;;;;;;;38.64;15.54;100207.63;4975468;28;97405;-81
2022/05/13 08:09:42;;;;;;;4.30;1.75;;;;;;;38.28;16.15;100192.19;4974882;28;97133;-83
2022/05/13 08:12:08;;;;;;;4.50;1.50;;;;;;;38.52;16.25;100211.41;4960287;28;96943;-80
2022/05/13 08:14:34;;;;;;;3.75;1.52;;;;;;;39.66;15.30;100186.94;4974901;28;101600;-82
2022/05/13 08:16:59;;;;;;;3.80;1.50;;;;;;;39.63;15.37;100192.09;4975985;28;101644;-81
2022/05/13 08:19:25;;;;;;;4.18;1.67;;;;;;;39.40;15.56;100185.66;4973742;28;97036;-83
2022/05/13 08:21:50;;;;;;;4.25;1.55;;;;;;;39.34;15.23;100194.88;4953270;28;97083;-81
2022/05/13 08:24:16;;;;;;;6.78;1.73;;;;;;;39.67;15.52;100188.59;4965785;28;98146;-81
2022/05/13 08:26:42;;;;;;;1.85;1.20;;;;;;;39.04;15.93;100181.31;4992638;28;97544;-83
2022/05/13 08:29:07;;;;;;;2.85;1.52;;;;;;;38.92;16.58;100182.22;4962446;28;96746;-81
2022/05/13 08:31:33;;;;;;;5.68;1.40;;;;;;;38.63;16.59;100178.53;4959305;28;97166;-81
2022/05/13 08:33:59;;;;;;;9.25;1.52;;;;;;;40.05;15.45;100178.84;4976995;28;98598;-82
2022/05/13 08:36:25;;;;;;;3.47;1.42;;;;;;;39.26;15.67;100167.78;4953477;28;97768;-82
2022/05/13 08:38:50;;;;;;;4.15;1.67;;;;;;;39.59;16.43;100167.03;4953508;28;97241;-81
2022/05/13 08:41:28;;;;;;;2.78;1.65;;;;;;;40.37;15.46;100161.78;4956383;28;97038;-81
2022/05/13 08:43:56;;;;;;;2.80;1.38;;;;;;;39.88;15.58;100153.28;4963370;28;97666;-81
2022/05/13 08:46:40;;;;;;;6.88;1.85;;;;;;;38.34;18.22;100161.13;4933880;28;101438;-80
2022/05/13 08:49:24;;;;;;;1.63;1.35;;;;;;;38.28;16.40;100159.31;4969608;28;96818;-80
2022/05/13 08:55:00;;;;;;;4.72;1.52;;;;;;;40.00;15.79;100143.88;4969129;28;98188;-82
2022/05/13 08:57:29;;;;;;;4.30;1.95;;;;;;;39.43;15.90;100149.47;4954227;28;98173;-85
2022/05/13 08:59:59;;;;;;;7.77;1.80;;;;;;;39.81;16.08;100124.06;4951070;28;96890;-80
2022/05/13 09:02:33;;;;;;;2.35;1.40;;;;;;;40.81;15.22;100137.09;4962042;28;97449;-83
2022/05/13 09:05:07;;;;;;;7.38;1.50;;;;;;;38.60;17.05;100142.50;4972222;28;97213;-75
2022/05/13 09:07:33;;;;;;;3.05;1.30;;;;;;;37.95;18.26;100127.84;4965534;28;101368;-78
2022/05/13 09:10:01;;;;;;;7.85;1.63;;;;;;;38.44;17.29;100133.97;4970237;28;97587;-80
2022/05/13 09:12:41;;;;;;;4.20;1.50;;;;;;;37.76;17.04;100109.81;4971991;28;97505;-80
2022/05/13 09:15:16;;;;;;;3.75;1.38;;;;;;;37.50;18.00;100125.63;4975091;28;101154;-80
2022/05/13 09:18:00;;;;;;;3.45;1.30;;;;;;;37.06;17.75;100135.03;4987569;28;101526;-80
2022/05/13 09:20:26;;;;;;;2.78;1.40;;;;;;;37.31;17.98;100133.00;4969900;28;97730;-80
2022/05/13 09:22:54;;;;;;;3.03;1.10;;;;;;;36.72;18.50;100110.81;4971676;28;96928;-81
2022/05/13 09:25:54;;;;;;;4.43;1.35;;;;;;;36.99;18.24;100117.84;4968928;28;101603;-79
2022/05/13 09:28:20;;;;;;;4.22;1.30;;;;;;;36.19;19.22;100118.75;4977073;28;99187;-78
2022/05/13 09:30:55;;;;;;;4.93;2.03;;;;;;;36.90;18.35;100109.97;4971884;28;97206;-80
2022/05/13 09:33:38;;;;;;;3.65;1.40;;;;;;;36.30;18.10;100104.31;4953331;28;96779;-79
2022/05/13 09:36:09;;;;;;;3.30;1.50;;;;;;;35.35;19.83;100096.25;4988261;28;97952;-79
2022/05/13 09:38:45;;;;;;;5.57;1.75;;;;;;;35.70;19.62;100107.59;4968461;28;101381;-79
2022/05/13 09:41:12;;;;;;;3.53;1.33;;;;;;;35.25;19.04;100102.19;4970183;28;97931;-79
2022/05/13 09:43:42;;;;;;;4.38;1.38;;;;;;;35.80;19.20;100104.34;4968443;28;96964;-79
2022/05/13 09:46:20;;;;;;;5.72;1.65;;;;;;;35.70;18.63;100101.28;4959566;28;97524;-79
2022/05/13 09:48:56;;;;;;;4.10;2.00;;;;;;;35.98;18.65;100090.72;4954225;28;101493;-79
2022/05/13 09:51:35;;;;;;;3.83;1.48;;;;;;;35.49;18.96;100083.34;4969104;28;97069;-79
2022/05/13 09:54:31;;;;;;;3.83;1.20;;;;;;;34.79;19.37;100081.44;4985793;28;98518;-81
2022/05/13 09:57:08;;;;;;;3.42;1.20;;;;;;;34.02;21.08;100070.25;4968853;28;97809;-78
2022/05/13 09:59:45;;;;;;;6.35;1.45;;;;;;;33.08;21.80;100051.38;4979309;28;101678;-79
2022/05/13 10:02:32;;;;;;;4.95;1.45;;;;;;;32.43;22.43;100073.38;4955822;28;96724;-79
2022/05/13 10:05:32;;;;;;;7.13;1.85;;;;;;;33.21;22.22;100056.81;5002462;28;97208;-78
2022/05/13 10:08:07;;;;;;;6.78;1.67;;;;;;;33.24;22.70;100074.59;4951087;28;101830;-79
2022/05/13 10:16:06;;;;;;;7.82;2.35;;;;;;;32.79;22.69;100058.75;4974379;28;96898;-78
2022/05/13 10:18:39;;;;;;;6.90;2.38;;;;;;;32.83;22.57;100054.59;4953371;28;101160;-81
2022/05/13 10:21:11;;;;;;;8.60;1.30;;;;;;;32.49;22.75;100041.91;4973325;28;97972;-77
2022/05/13 10:23:48;;;;;;;32.83;3.85;;;;;;;32.42;24.93;100047.28;4977557;28;96839;-87
2022/05/13 10:26:19;;;;;;;3.08;1.30;;;;;;;31.89;25.97;100043.38;4972800;28;96926;-75
2022/05/13 10:29:03;;;;;;;5.70;1.40;;;;;;;31.54;27.43;100018.91;4970256;28;97992;-77
2022/05/13 10:31:34;;;;;;;4.22;1.58;;;;;;;31.62;28.18;100034.19;4971493;28;98511;-77
2022/05/13 10:34:14;;;;;;;;;;;;;;;31.25;28.43;100031.53;4954578;28;96738;-76
2022/05/13 10:36:50;;;;;;;7.43;1.50;;;;;;;31.09;23.98;100027.19;4974203;28;97341;-77
2022/05/13 10:39:24;;;;;;;6.05;1.50;;;;;;;30.97;25.14;100019.78;4970739;28;98091;-80
2022/05/13 10:41:57;;;;;;;3.95;1.20;;;;;;;30.65;29.03;100019.19;4987953;28;101310;-78
2022/05/13 10:44:23;;;;;;;4.93;1.60;;;;;;;30.26;28.62;100022.22;4975802;28;96761;-82
2022/05/13 10:46:56;;;;;;;4.93;1.30;;;;;;;30.23;25.70;100018.88;4977527;28;96756;-85
2022/05/13 10:49:23;;;;;;;3.55;1.50;;;;;;;30.17;27.39;100019.59;4993649;28;98522;-85
2022/05/13 10:52:27;;;;;;;3.80;1.50;;;;;;;30.15;28.80;100032.44;4974898;28;101233;-83
2022/05/13 10:55:19;;;;;;;8.93;1.90;;;;;;;30.13;28.29;100033.66;4993918;28;96739;-83
2022/05/13 10:57:55;;;;;;;11.18;2.67;;;;;;;30.11;28.37;100033.88;4993593;28;97285;-84
2022/05/13 11:00:30;;;;;;;6.88;1.90;;;;;;;30.16;27.74;100034.13;4974457;28;97507;-84
2022/05/13 11:03:21;;;;;;;4.72;1.60;;;;;;;30.19;26.17;100025.63;4974033;28;100259;-83
2022/05/13 11:05:59;;;;;;;4.30;1.40;;;;;;;30.12;25.95;100040.94;4965311;28;97339;-83
2022/05/13 11:08:51;;;;;;;6.13;1.90;;;;;;;29.91;28.13;100030.84;4975235;28;98196;-84
2022/05/13 11:11:42;;;;;;;4.07;1.40;;;;;;;30.00;27.28;100031.63;4959927;28;101780;-81
2022/05/13 11:14:20;;;;;;;4.63;1.85;;;;;;;29.87;27.90;100016.00;4999219;28;97896;-82
2022/05/13 11:17:12;;;;;;;6.13;1.73;;;;;;;29.85;27.59;100034.31;4992667;28;96817;-82
2022/05/13 11:20:02;;;;;;;4.20;1.60;;;;;;;30.07;26.64;100032.53;4976365;28;97027;-83
2022/05/13 11:22:30;;;;;;;6.07;1.30;;;;;;;29.55;27.45;100045.03;4961422;28;100990;-81
2022/05/13 11:28:12;;;;;;;5.90;1.38;;;;;;;29.16;27.67;100025.41;4991713;28;97005;-83
2022/05/13 11:31:07;;;;;;;5.18;1.98;;;;;;;28.88;26.85;100013.19;4993762;28;96710;-77
2022/05/13 11:33:57;;;;;;;10.20;1.60;;;;;;;29.10;27.50;100019.69;4991054;28;97667;-77
2022/05/13 11:36:42;;;;;;;2.53;1.30;;;;;;;29.11;28.19;99998.91;4993998;28;97528;-78
2022/05/13 11:39:28;;;;;;;3.80;1.60;;;;;;;29.02;28.95;100008.94;4972593;28;96703;-80
2022/05/13 11:42:04;;;;;;;4.88;1.35;;;;;;;29.20;28.06;100011.31;4985964;28;97209;-79
2022/05/13 11:44:48;;;;;;;6.78;1.50;;;;;;;28.80;27.13;100002.47;4992704;28;97502;-82
2022/05/13 11:47:22;;;;;;;2.33;1.30;;;;;;;28.72;28.52;99988.19;4985753;28;98053;-79
2022/05/13 11:49:48;;;;;;;6.78;1.88;;;;;;;28.48;28.57;99976.50;4994699;28;97377;-78
2022/05/13 11:52:14;;;;;;;4.25;1.45;;;;;;;28.61;28.68;99994.81;4984479;28;96859;-80
2022/05/13 11:54:41;;;;;;;6.53;1.83;;;;;;;28.67;28.56;99976.03;4991023;28;99954;-80
2022/05/13 11:57:16;;;;;;;4.32;2.40;;;;;;;28.83;28.55;100001.28;4973531;28;102051;-80
2022/05/13 11:59:53;;;;;;;4.53;2.15;;;;;;;28.71;28.45;99976.53;4985877;28;96686;-80
2022/05/13 12:02:33;;;;;;;5.65;2.10;;;;;;;29.08;28.60;99993.88;4993131;28;96659;-81
2022/05/13 12:05:08;;;;;;;7.57;2.13;;;;;;;29.06;29.29;99945.44;4991717;28;98623;-80